Time;durP1;ratioP1;P1;durP2;ratioP2;P2;SDS_P1;SDS_P2;PMS_P1;PMS_P2;Temp;Humidity;BMP_temperature;BMP_pressure;BME280_temperature;BME280_humidity;BME280_pressure;Samples;Min_cycle;Max_cycle;Signal;HPM_P1;HPM_P2
2021/10/11 00:02:07;;;;;;;12.23;8.32;;;0.10;99.90;;;;;;5076361;28;20108;-81
2021/10/11 00:04:34;;;;;;;11.20;7.93;;;0.10;99.90;;;;;;5074913;28;20051;-81
2021/10/11 00:07:01;;;;;;;13.82;7.93;;;0.10;99.90;;;;;;5076650;28;20072;-81
2021/10/11 00:09:27;;;;;;;11.95;8.32;;;0.00;99.90;;;;;;5074947;28;20131;-81
2021/10/11 00:11:54;;;;;;;12.35;8.55;;;0.10;99.90;;;;;;5075376;28;20109;-82
2021/10/11 00:14:21;;;;;;;13.38;8.70;;;-0.10;99.90;;;;;;5075263;28;20123;-81
2021/10/11 00:16:48;;;;;;;13.57;8.95;;;-0.10;99.90;;;;;;5076384;28;20127;-81
2021/10/11 00:19:14;;;;;;;14.60;9.23;;;-0.10;99.90;;;;;;5074813;28;20143;-80
2021/10/11 00:21:41;;;;;;;13.82;9.00;;;0.00;99.90;;;;;;5076015;28;20114;-81
2021/10/11 00:24:08;;;;;;;9.95;7.97;;;-0.10;99.90;;;;;;5075818;28;20131;-83
2021/10/11 00:26:34;;;;;;;14.50;9.30;;;-0.10;99.90;;;;;;5075319;28;20481;-81
2021/10/11 00:29:01;;;;;;;14.35;9.20;;;0.00;99.90;;;;;;5075503;28;20087;-82
2021/10/11 00:31:28;;;;;;;13.75;9.07;;;0.00;99.90;;;;;;5077463;28;20076;-82
2021/10/11 00:33:56;;;;;;;12.27;9.27;;;0.00;99.90;;;;;;5076160;28;20108;-82
2021/10/11 00:36:24;;;;;;;11.73;8.65;;;-0.10;99.90;;;;;;5076482;28;20071;-81
2021/10/11 00:38:51;;;;;;;16.23;8.63;;;-0.10;99.90;;;;;;5077302;28;20539;-82
2021/10/11 00:41:18;;;;;;;9.98;7.97;;;-0.20;99.90;;;;;;5076611;28;20127;-82
2021/10/11 00:43:45;;;;;;;12.70;8.85;;;-0.20;99.90;;;;;;5078499;28;20048;-82
2021/10/11 00:46:11;;;;;;;11.60;7.15;;;-0.20;99.90;;;;;;5075821;28;20370;-82
2021/10/11 00:48:38;;;;;;;13.85;8.45;;;-0.20;99.90;;;;;;5075318;28;20099;-82
2021/10/11 00:51:05;;;;;;;11.07;8.38;;;-0.20;99.90;;;;;;5075074;28;20109;-81
2021/10/11 00:53:33;;;;;;;12.77;8.27;;;-0.30;99.90;;;;;;5074535;28;20131;-82
2021/10/11 00:56:00;;;;;;;11.75;8.32;;;-0.30;99.90;;;;;;5075058;28;20135;-83
2021/10/11 00:58:27;;;;;;;12.05;8.95;;;-0.30;99.90;;;;;;5075169;28;20588;-81
2021/10/11 01:00:55;;;;;;;11.10;8.32;;;-0.40;99.90;;;;;;5075222;28;20068;-81
2021/10/11 01:03:22;;;;;;;12.95;8.68;;;-0.40;99.90;;;;;;5074497;28;20649;-82
2021/10/11 01:05:48;;;;;;;11.35;7.97;;;-0.40;99.90;;;;;;5076492;28;20052;-81
2021/10/11 01:08:15;;;;;;;14.93;9.00;;;-0.30;99.90;;;;;;5074915;28;20136;-82
2021/10/11 01:10:48;;;;;;;14.25;8.85;;;-0.30;99.90;;;;;;5074710;28;20139;-82
2021/10/11 01:13:15;;;;;;;14.20;9.07;;;-0.30;99.90;;;;;;5076424;28;20490;-81
2021/10/11 01:15:42;;;;;;;14.23;9.40;;;-0.20;99.90;;;;;;5074866;28;20044;-82
2021/10/11 01:18:09;;;;;;;19.77;9.57;;;-0.10;99.90;;;;;;5076036;28;20076;-82
2021/10/11 01:20:36;;;;;;;14.70;8.57;;;-0.20;99.90;;;;;;5076051;28;20135;-82
2021/10/11 01:23:02;;;;;;;15.98;9.50;;;-0.30;99.90;;;;;;5074751;28;20131;-82
2021/10/11 01:25:29;;;;;;;15.65;9.35;;;-0.30;99.90;;;;;;5075009;28;20083;-82
2021/10/11 01:27:56;;;;;;;15.55;9.43;;;-0.20;99.90;;;;;;5074396;28;20080;-82
2021/10/11 01:30:23;;;;;;;16.33;9.07;;;-0.20;99.90;;;;;;5074119;28;20127;-81
2021/10/11 01:32:50;;;;;;;15.57;8.57;;;-0.20;99.90;;;;;;5075126;28;20139;-82
2021/10/11 01:35:17;;;;;;;17.13;9.52;;;-0.10;99.90;;;;;;5074102;28;20044;-82
2021/10/11 01:37:44;;;;;;;17.10;10.00;;;-0.20;99.90;;;;;;5074399;28;20108;-83
2021/10/11 01:40:11;;;;;;;16.92;8.13;;;-0.10;99.90;;;;;;5075809;28;20460;-82
2021/10/11 01:42:38;;;;;;;12.40;8.85;;;-0.20;99.90;;;;;;5073901;28;20076;-82
2021/10/11 01:45:07;;;;;;;13.63;9.07;;;-0.10;99.90;;;;;;5074864;28;20080;-81
2021/10/11 01:47:34;;;;;;;12.00;9.27;;;0.00;99.90;;;;;;5072316;28;20127;-81
2021/10/11 01:50:02;;;;;;;17.42;10.32;;;0.10;99.90;;;;;;5073476;28;20051;-82
2021/10/11 01:52:30;;;;;;;24.48;12.82;;;0.10;99.90;;;;;;5073361;28;20134;-82
2021/10/11 01:54:56;;;;;;;16.15;10.70;;;0.00;99.90;;;;;;5072905;28;20091;-83
2021/10/11 01:57:23;;;;;;;13.52;9.27;;;0.00;99.90;;;;;;5073243;28;20105;-81
2021/10/11 01:59:50;;;;;;;16.27;9.30;;;0.00;99.90;;;;;;5073342;28;20080;-81
2021/10/11 02:02:16;;;;;;;14.38;8.75;;;0.00;99.90;;;;;;5073481;28;20095;-82
2021/10/11 02:04:43;;;;;;;11.70;8.25;;;0.00;99.90;;;;;;5073742;28;20123;-82
2021/10/11 02:07:09;;;;;;;12.40;8.55;;;0.00;99.90;;;;;;5074595;28;20502;-82
2021/10/11 02:09:36;;;;;;;16.13;8.07;;;0.00;99.90;;;;;;5073592;28;20143;-82
2021/10/11 02:12:03;;;;;;;13.50;8.63;;;-0.10;99.90;;;;;;5073156;28;20139;-82
2021/10/11 02:14:30;;;;;;;10.75;8.32;;;-0.20;99.90;;;;;;5073087;28;20481;-81
2021/10/11 02:16:58;;;;;;;13.13;6.82;;;-0.20;99.90;;;;;;5077117;28;20086;-82
2021/10/11 02:19:25;;;;;;;12.35;8.27;;;-0.30;99.90;;;;;;5077052;28;20045;-81
2021/10/11 02:21:52;;;;;;;12.07;8.13;;;-0.20;99.90;;;;;;5077462;28;20045;-82
2021/10/11 02:24:18;;;;;;;10.35;7.70;;;-0.30;99.90;;;;;;5078212;28;20140;-81
2021/10/11 02:26:45;;;;;;;13.77;8.30;;;-0.40;99.90;;;;;;5076901;28;20481;-81
2021/10/11 02:29:12;;;;;;;14.02;8.60;;;-0.50;99.90;;;;;;5076846;28;20487;-82
2021/10/11 02:31:38;;;;;;;10.50;7.13;;;-0.60;99.90;;;;;;5076690;28;20084;-82
2021/10/11 02:34:05;;;;;;;13.32;7.80;;;-0.60;99.90;;;;;;5077047;28;20055;-82
2021/10/11 02:36:32;;;;;;;9.60;7.30;;;-0.60;99.90;;;;;;5076559;28;20084;-82
2021/10/11 02:38:58;;;;;;;11.25;7.28;;;-0.70;99.90;;;;;;5076478;28;20136;-82
2021/10/11 02:41:25;;;;;;;10.60;7.70;;;-0.70;99.90;;;;;;5078059;28;20131;-82
2021/10/11 02:43:52;;;;;;;12.50;7.70;;;-0.80;99.90;;;;;;5077797;28;20084;-84
2021/10/11 02:46:19;;;;;;;13.68;7.75;;;-0.90;99.90;;;;;;5076227;28;20103;-81
2021/10/11 02:48:45;;;;;;;12.95;7.68;;;-0.80;99.90;;;;;;5077863;28;20084;-82
2021/10/11 02:51:12;;;;;;;11.07;7.18;;;-0.80;99.90;;;;;;5076837;28;20084;-82
2021/10/11 02:53:39;;;;;;;11.38;7.50;;;-0.80;99.90;;;;;;5076538;28;20068;-82
2021/10/11 02:56:06;;;;;;;10.95;7.75;;;-0.90;99.90;;;;;;5076707;28;20048;-82
2021/10/11 02:58:32;;;;;;;12.02;7.63;;;-0.90;99.90;;;;;;5076374;28;20094;-82
2021/10/11 03:00:59;;;;;;;12.57;8.80;;;-0.90;99.90;;;;;;5076144;28;20532;-82
2021/10/11 03:03:26;;;;;;;12.57;8.20;;;-0.90;99.90;;;;;;5078091;28;20051;-85
2021/10/11 03:05:52;;;;;;;10.15;8.20;;;-1.00;99.90;;;;;;5077681;28;20056;-85
2021/10/11 03:08:19;;;;;;;14.38;8.38;;;-1.00;99.90;;;;;;5075542;28;20162;-85
2021/10/11 03:10:46;;;;;;;11.30;8.05;;;-0.90;99.90;;;;;;5075704;28;20124;-86
2021/10/11 03:13:12;;;;;;;12.27;8.02;;;-0.90;99.90;;;;;;5075456;28;20083;-86
2021/10/11 03:15:39;;;;;;;11.90;8.45;;;-0.80;99.90;;;;;;5075451;28;20428;-85
2021/10/11 03:18:06;;;;;;;12.27;8.23;;;-0.80;99.90;;;;;;5075561;28;20059;-85
2021/10/11 03:20:33;;;;;;;14.55;8.52;;;-0.90;99.90;;;;;;5075478;28;20053;-85
2021/10/11 03:23:00;;;;;;;15.95;8.98;;;-0.90;99.90;;;;;;5077781;28;20083;-87
2021/10/11 03:25:26;;;;;;;10.57;8.35;;;-0.80;99.90;;;;;;5079042;28;20049;-86
2021/10/11 03:27:53;;;;;;;15.93;9.95;;;-0.70;99.90;;;;;;5078956;28;20113;-86
2021/10/11 03:30:20;;;;;;;17.33;10.10;;;-0.80;99.90;;;;;;5079570;28;20614;-86
2021/10/11 03:32:47;;;;;;;15.35;10.70;;;-0.90;99.90;;;;;;5080180;28;20066;-86
2021/10/11 03:35:14;;;;;;;17.02;10.25;;;-0.80;99.90;;;;;;5078382;28;20080;-87
2021/10/11 03:37:41;;;;;;;26.85;14.27;;;-0.90;99.90;;;;;;5079315;28;20127;-86
2021/10/11 03:40:08;;;;;;;18.60;11.13;;;-0.70;99.90;;;;;;5078935;28;20052;-86
2021/10/11 03:42:35;;;;;;;15.15;10.25;;;-0.60;99.90;;;;;;5078698;28;20103;-86
2021/10/11 03:45:02;;;;;;;15.73;9.73;;;-0.60;99.90;;;;;;5080006;28;20052;-86
2021/10/11 03:47:28;;;;;;;15.25;9.45;;;-0.60;99.90;;;;;;5078867;28;20502;-86
2021/10/11 03:49:55;;;;;;;11.68;8.63;;;-0.60;99.90;;;;;;5078685;28;20056;-87
2021/10/11 03:52:22;;;;;;;13.00;8.88;;;-0.60;99.90;;;;;;5078864;28;20406;-86
2021/10/11 03:54:48;;;;;;;13.38;9.15;;;-0.60;99.90;;;;;;5078373;28;20080;-87
2021/10/11 03:57:15;;;;;;;15.88;9.15;;;-0.70;99.90;;;;;;5078317;28;20549;-87
2021/10/11 03:59:42;;;;;;;14.10;9.43;;;-0.60;99.90;;;;;;5077693;28;20581;-86
2021/10/11 04:02:09;;;;;;;15.50;9.48;;;-0.60;99.90;;;;;;5079748;28;20131;-86
2021/10/11 04:04:36;;;;;;;17.67;9.43;;;-0.50;99.90;;;;;;5078069;28;20068;-87
2021/10/11 04:07:08;;;;;;;18.90;8.68;;;-0.50;99.90;;;;;;5077916;28;20048;-87
2021/10/11 04:09:37;;;;;;;12.50;8.87;;;-0.50;99.90;;;;;;5079399;28;20083;-87
2021/10/11 04:12:06;;;;;;;13.00;8.80;;;-0.50;99.90;;;;;;5077457;28;20310;-87
2021/10/11 04:14:34;;;;;;;13.82;8.52;;;-0.60;99.90;;;;;;5077715;28;20059;-86
2021/10/11 04:17:01;;;;;;;14.90;8.90;;;-0.60;99.90;;;;;;5077685;28;20127;-87
2021/10/11 04:19:28;;;;;;;11.93;8.35;;;-0.60;99.90;;;;;;5078117;28;20540;-87
2021/10/11 04:21:54;;;;;;;16.58;9.82;;;-0.70;99.90;;;;;;5080362;28;20086;-86
2021/10/11 04:24:21;;;;;;;12.93;9.75;;;-0.70;99.90;;;;;;5074745;28;20079;-86
2021/10/11 04:26:48;;;;;;;15.00;9.35;;;-0.60;99.90;;;;;;5074741;28;20131;-86
2021/10/11 04:29:14;;;;;;;15.23;9.40;;;-0.50;99.90;;;;;;5074999;28;20469;-86
2021/10/11 04:31:41;;;;;;;15.20;10.23;;;-0.50;99.90;;;;;;5075898;28;20112;-86
2021/10/11 04:34:09;;;;;;;15.82;9.35;;;-0.50;99.90;;;;;;5074499;28;20512;-86
2021/10/11 04:36:36;;;;;;;12.27;9.05;;;-0.40;99.90;;;;;;5074790;28;20079;-86
2021/10/11 04:39:03;;;;;;;10.88;8.32;;;-0.40;99.90;;;;;;5073753;28;20135;-86
2021/10/11 04:41:29;;;;;;;13.82;9.05;;;-0.40;99.90;;;;;;5075662;28;20108;-87
2021/10/11 04:43:57;;;;;;;18.63;12.80;;;-0.30;99.90;;;;;;5077801;28;20098;-86
2021/10/11 04:46:24;;;;;;;32.13;22.33;;;-0.40;99.90;;;;;;5079386;28;20321;-86
2021/10/11 04:48:51;;;;;;;26.95;16.23;;;-0.30;99.90;;;;;;5076931;28;20045;-87
2021/10/11 04:51:17;;;;;;;26.23;14.55;;;-0.20;99.90;;;;;;5077391;28;20059;-86
2021/10/11 04:53:44;;;;;;;37.83;23.77;;;-0.10;99.90;;;;;;5076511;28;20060;-86
2021/10/11 04:56:11;;;;;;;39.17;26.80;;;-0.10;99.90;;;;;;5078814;28;20076;-86
2021/10/11 04:58:37;;;;;;;46.40;31.50;;;-0.10;99.90;;;;;;5076945;28;20086;-87
2021/10/11 05:01:04;;;;;;;41.63;29.25;;;-0.10;99.90;;;;;;5078577;28;20083;-86
2021/10/11 05:03:31;;;;;;;46.28;30.98;;;0.00;99.90;;;;;;5076739;28;20048;-86
2021/10/11 05:05:58;;;;;;;53.40;38.30;;;0.00;99.90;;;;;;5077860;28;20087;-87
2021/10/11 05:08:25;;;;;;;64.13;43.10;;;0.00;99.90;;;;;;5077100;28;20490;-87
2021/10/11 05:10:51;;;;;;;41.13;29.02;;;0.10;99.90;;;;;;5079000;28;20094;-87
2021/10/11 05:13:18;;;;;;;50.35;33.92;;;0.10;99.90;;;;;;5077153;28;20541;-87
2021/10/11 05:15:45;;;;;;;45.17;28.63;;;0.10;99.90;;;;;;5075810;28;20131;-86
2021/10/11 05:18:11;;;;;;;27.77;18.42;;;0.00;99.90;;;;;;5082324;28;20064;-86
2021/10/11 05:20:44;;;;;;;23.88;17.38;;;0.00;99.90;;;;;;5083593;28;20064;-86
2021/10/11 05:23:11;;;;;;;24.75;13.95;;;0.00;99.90;;;;;;5084127;28;20040;-86
2021/10/11 05:25:37;;;;;;;26.52;13.25;;;0.00;99.90;;;;;;5083757;28;20495;-86
2021/10/11 05:28:04;;;;;;;24.00;12.88;;;0.00;99.90;;;;;;5083528;28;20106;-86
2021/10/11 05:30:31;;;;;;;17.15;12.65;;;0.00;99.90;;;;;;5082978;28;20045;-86
2021/10/11 05:32:58;;;;;;;17.15;11.77;;;0.00;99.90;;;;;;5084502;28;20063;-86
2021/10/11 05:35:25;;;;;;;16.75;10.85;;;0.00;99.90;;;;;;5082560;28;20429;-86
2021/10/11 05:37:52;;;;;;;18.92;11.25;;;0.00;99.90;;;;;;5083341;28;20136;-86
2021/10/11 05:40:18;;;;;;;15.38;10.00;;;-0.10;99.90;;;;;;5082904;28;20044;-86
2021/10/11 05:42:45;;;;;;;20.85;13.85;;;0.00;99.90;;;;;;5081726;28;20048;-85
2021/10/11 05:45:12;;;;;;;20.35;13.38;;;0.00;99.90;;;;;;5082229;28;20414;-86
2021/10/11 05:47:39;;;;;;;24.05;11.85;;;0.20;99.90;;;;;;5081780;28;20075;-86
2021/10/11 05:50:07;;;;;;;26.30;15.57;;;0.30;99.90;;;;;;5081098;28;20072;-86
2021/10/11 05:52:34;;;;;;;41.20;28.23;;;0.40;99.90;;;;;;5081122;28;20076;-86
2021/10/11 05:55:01;;;;;;;34.47;22.33;;;0.50;99.90;;;;;;5080867;28;20053;-86
2021/10/11 05:57:27;;;;;;;23.83;15.65;;;0.60;99.90;;;;;;5082460;28;20110;-85
2021/10/11 05:59:54;;;;;;;23.23;14.48;;;0.60;99.90;;;;;;5081745;28;20621;-85
2021/10/11 06:02:21;;;;;;;36.67;18.00;;;0.70;99.90;;;;;;5083895;28;20040;-86
2021/10/11 06:04:47;;;;;;;38.15;18.73;;;0.70;99.90;;;;;;5083946;28;20112;-86
2021/10/11 06:07:14;;;;;;;34.05;16.23;;;0.60;99.90;;;;;;5083586;28;20088;-86
2021/10/11 06:09:41;;;;;;;25.85;14.88;;;0.70;99.90;;;;;;5082510;28;20055;-86
2021/10/11 06:12:08;;;;;;;21.35;14.18;;;0.90;99.90;;;;;;5084171;28;20052;-86
2021/10/11 06:14:55;;;;;;;24.27;15.23;;;0.90;99.90;;;;;;5083943;28;20067;-86
2021/10/11 06:17:21;;;;;;;22.48;14.00;;;0.90;99.90;;;;;;5082802;28;20045;-86
2021/10/11 06:19:48;;;;;;;21.00;13.68;;;1.10;99.90;;;;;;5082403;28;20037;-86
2021/10/11 06:22:15;;;;;;;23.80;13.38;;;1.10;99.90;;;;;;5080696;28;20052;-86
2021/10/11 06:24:42;;;;;;;20.25;13.55;;;1.10;99.90;;;;;;5081196;28;20083;-86
2021/10/11 06:27:08;;;;;;;22.70;13.07;;;1.10;99.90;;;;;;5080438;28;20084;-86
2021/10/11 06:29:35;;;;;;;19.77;11.60;;;1.10;99.90;;;;;;5082702;28;20080;-86
2021/10/11 06:32:02;;;;;;;20.13;11.63;;;1.20;99.90;;;;;;5080192;28;20110;-86
2021/10/11 06:34:29;;;;;;;15.10;11.05;;;1.20;99.90;;;;;;5080650;28;20053;-86
2021/10/11 06:36:56;;;;;;;17.75;10.95;;;1.20;99.90;;;;;;5079277;28;20098;-86
2021/10/11 06:39:23;;;;;;;22.30;11.85;;;1.30;99.90;;;;;;5080715;28;20064;-86
2021/10/11 06:41:49;;;;;;;26.38;13.60;;;1.30;99.90;;;;;;5079561;28;20055;-86
2021/10/11 06:44:17;;;;;;;18.52;13.57;;;1.30;99.90;;;;;;5079184;28;20471;-86
2021/10/11 06:46:45;;;;;;;24.52;15.55;;;1.40;99.90;;;;;;5080919;28;20060;-86
2021/10/11 06:49:12;;;;;;;27.90;14.23;;;1.60;99.90;;;;;;5079162;28;20075;-86
2021/10/11 06:51:39;;;;;;;28.95;16.25;;;1.70;99.90;;;;;;5079241;28;20068;-86
2021/10/11 06:54:05;;;;;;;35.95;18.90;;;2.00;99.90;;;;;;5078603;28;20076;-86
2021/10/11 06:56:32;;;;;;;25.67;16.25;;;2.00;99.90;;;;;;5078282;28;20064;-85
2021/10/11 06:58:59;;;;;;;27.75;19.75;;;2.10;99.90;;;;;;5080200;28;20041;-85
2021/10/11 07:01:27;;;;;;;55.63;35.67;;;2.30;99.90;;;;;;5075430;28;20079;-84
2021/10/11 07:03:53;;;;;;;52.67;34.15;;;2.60;99.90;;;;;;5077354;28;20098;-86
2021/10/11 07:06:21;;;;;;;32.72;20.67;;;2.70;99.90;;;;;;5077766;28;20636;-85
2021/10/11 07:08:48;;;;;;;25.58;15.75;;;2.90;99.90;;;;;;5078142;28;20127;-85
2021/10/11 07:11:15;;;;;;;20.17;12.95;;;2.90;99.90;;;;;;5077293;28;20139;-85
2021/10/11 07:13:41;;;;;;;21.63;13.48;;;2.90;99.90;;;;;;5077499;28;20045;-85
2021/10/11 07:16:08;;;;;;;24.95;12.98;;;2.90;99.90;;;;;;5076521;28;20048;-84
2021/10/11 07:18:35;;;;;;;21.65;14.15;;;2.90;99.90;;;;;;5077418;28;20048;-84
2021/10/11 07:21:04;;;;;;;33.70;12.98;;;2.90;99.90;;;;;;5080901;28;20048;-86
2021/10/11 07:23:31;;;;;;;30.50;17.23;;;2.90;99.90;;;;;;5081577;28;20465;-86
2021/10/11 07:25:59;;;;;;;44.72;21.17;;;3.10;99.90;;;;;;5081507;28;20151;-86
2021/10/11 07:28:27;;;;;;;50.35;24.23;;;3.30;99.90;;;;;;5080750;28;20505;-85
2021/10/11 07:30:54;;;;;;;48.95;20.17;;;3.70;99.90;;;;;;5080403;28;20095;-86
2021/10/11 07:33:22;;;;;;;55.42;26.17;;;4.10;99.90;;;;;;5080909;28;20485;-86
2021/10/11 07:35:50;;;;;;;41.67;24.08;;;4.50;99.90;;;;;;5080711;28;20052;-86
2021/10/11 07:38:17;;;;;;;22.75;15.70;;;4.80;99.90;;;;;;5082334;28;20124;-86
2021/10/11 07:40:51;;;;;;;25.90;13.38;;;5.30;99.90;;;;;;5078973;28;20514;-85
2021/10/11 07:43:18;;;;;;;27.13;15.48;;;5.20;99.90;;;;;;5078120;28;20131;-87
2021/10/11 07:45:45;;;;;;;19.35;10.75;;;5.60;99.90;;;;;;5078750;28;20102;-85
2021/10/11 07:48:14;;;;;;;14.65;8.65;;;5.90;99.90;;;;;;5079068;28;20045;-86
2021/10/11 07:50:41;;;;;;;19.40;9.30;;;5.90;99.90;;;;;;5081014;28;20048;-86
2021/10/11 07:53:08;;;;;;;18.73;9.50;;;5.80;99.90;;;;;;5080345;28;20135;-85
2021/10/11 07:55:35;;;;;;;14.93;8.85;;;6.10;99.90;;;;;;5079899;28;20148;-85
2021/10/11 07:58:01;;;;;;;25.08;12.93;;;6.20;99.90;;;;;;5078600;28;20425;-86
2021/10/11 08:00:28;;;;;;;57.47;18.02;;;6.40;99.90;;;;;;5080947;28;20076;-86
2021/10/11 08:02:55;;;;;;;30.85;12.98;;;7.10;99.90;;;;;;5080357;28;20398;-86
2021/10/11 08:05:22;;;;;;;17.60;7.25;;;7.60;99.90;;;;;;5079662;28;20112;-86
2021/10/11 08:07:48;;;;;;;21.63;8.02;;;7.80;99.90;;;;;;5079661;28;20072;-86
2021/10/11 08:10:15;;;;;;;17.42;8.70;;;7.90;99.90;;;;;;5078689;28;20414;-86
2021/10/11 08:12:42;;;;;;;35.58;10.52;;;7.40;99.90;;;;;;5080845;28;20060;-86
2021/10/11 08:15:09;;;;;;;24.52;10.32;;;7.30;99.90;;;;;;5079137;28;20071;-86
2021/10/11 08:17:36;;;;;;;28.38;11.15;;;7.40;99.90;;;;;;5078021;28;20060;-84
2021/10/11 08:20:05;;;;;;;24.42;10.90;;;7.30;99.90;;;;;;5075236;28;20128;-86
2021/10/11 08:22:32;;;;;;;22.38;9.82;;;7.40;99.90;;;;;;5078688;28;20102;-84
2021/10/11 08:24:59;;;;;;;23.90;12.32;;;7.40;99.90;;;;;;5077680;28;20162;-86
2021/10/11 08:27:26;;;;;;;20.83;9.65;;;7.70;99.90;;;;;;5075952;28;20096;-86
2021/10/11 08:29:53;;;;;;;16.25;7.95;;;7.70;99.90;;;;;;5076603;28;20044;-84
2021/10/11 08:32:24;;;;;;;22.38;8.57;;;7.80;99.90;;;;;;5076911;28;20068;-85
2021/10/11 08:34:52;;;;;;;34.97;9.30;;;8.10;99.90;;;;;;5075097;28;20139;-85
2021/10/11 08:37:20;;;;;;;23.33;10.23;;;8.40;99.90;;;;;;5076557;28;20128;-86
2021/10/11 08:39:47;;;;;;;13.80;8.10;;;8.70;99.90;;;;;;5080185;28;20104;-86
2021/10/11 08:42:15;;;;;;;15.57;6.72;;;9.30;99.90;;;;;;5077885;28;20048;-85
2021/10/11 08:44:43;;;;;;;16.35;7.07;;;9.90;99.90;;;;;;5078496;28;20401;-86
2021/10/11 08:47:12;;;;;;;13.52;7.18;;;10.30;99.90;;;;;;5078054;28;20135;-86
2021/10/11 08:49:44;;;;;;;13.45;6.93;;;10.50;99.90;;;;;;5078628;28;20135;-86
2021/10/11 08:52:12;;;;;;;15.57;8.40;;;10.70;99.90;;;;;;5080010;28;20083;-86
2021/10/11 08:54:40;;;;;;;22.33;10.20;;;11.20;99.90;;;;;;5080099;28;20060;-85
2021/10/11 08:57:19;;;;;;;17.75;9.57;;;10.80;99.90;;;;;;5080637;28;20127;-86
2021/10/11 08:59:47;;;;;;;15.85;8.18;;;10.40;99.90;;;;;;5078698;28;20044;-86
2021/10/11 09:02:15;;;;;;;13.73;8.27;;;10.10;99.90;;;;;;5078142;28;20062;-85
2021/10/11 09:04:51;;;;;;;17.33;8.43;;;9.90;99.90;;;;;;5080067;28;20071;-85
2021/10/11 09:07:26;;;;;;;14.05;7.72;;;9.60;99.90;;;;;;5079385;28;20045;-86
2021/10/11 09:09:55;;;;;;;16.30;9.68;;;9.60;99.90;;;;;;5079762;28;20132;-85
2021/10/11 09:12:25;;;;;;;22.08;11.75;;;9.70;99.90;;;;;;5078322;28;20445;-85
2021/10/11 09:15:05;;;;;;;17.02;9.55;;;9.70;99.90;;;;;;5078440;28;20076;-85
2021/10/11 09:17:43;;;;;;;22.33;10.52;;;9.70;99.90;;;;;;5077996;28;20044;-85
2021/10/11 09:20:14;;;;;;;35.35;17.15;;;9.60;99.90;;;;;;5078635;28;20044;-85
2021/10/11 09:22:42;;;;;;;21.90;11.50;;;9.40;99.90;;;;;;5078675;28;20108;-85
2021/10/11 09:25:10;;;;;;;25.42;10.38;;;9.30;99.90;;;;;;5079537;28;20103;-84
2021/10/11 09:27:44;;;;;;;20.35;10.02;;;9.40;99.90;;;;;;5079004;28;20135;-85
2021/10/11 09:30:11;;;;;;;;;;;9.40;99.90;;;;;;5079794;28;20079;-85
2021/10/11 09:32:39;;;;;;;17.35;8.75;;;9.50;99.90;;;;;;5079098;28;19981;-85
2021/10/11 09:35:17;;;;;;;22.65;9.50;;;9.60;99.90;;;;;;5078258;28;20088;-85
2021/10/11 09:37:50;;;;;;;18.05;9.05;;;9.50;99.90;;;;;;5074957;28;20076;-84
2021/10/11 09:40:21;;;;;;;31.87;10.30;;;9.60;99.90;;;;;;5076212;28;20052;-85
2021/10/11 09:42:48;;;;;;;19.52;8.77;;;9.60;99.90;;;;;;5075728;28;20083;-85
2021/10/11 09:45:21;;;;;;;18.35;8.65;;;9.50;99.90;;;;;;5075582;28;20060;-85
2021/10/11 09:47:47;;;;;;;18.70;9.18;;;9.70;99.90;;;;;;5075376;28;20052;-84
2021/10/11 09:50:17;;;;;;;17.42;8.63;;;10.10;99.90;;;;;;5074850;28;20072;-85
2021/10/11 09:52:45;;;;;;;23.13;8.70;;;10.30;99.90;;;;;;5074907;28;20477;-84
2021/10/11 09:55:13;;;;;;;16.75;9.10;;;10.10;99.90;;;;;;5076036;28;20130;-85
2021/10/11 09:57:40;;;;;;;24.80;9.07;;;10.30;99.90;;;;;;5078645;28;20105;-86
2021/10/11 10:00:11;;;;;;;20.88;8.75;;;10.20;99.90;;;;;;5078920;28;20464;-85
2021/10/11 10:02:40;;;;;;;12.65;8.32;;;10.30;99.90;;;;;;5080321;28;20044;-85
2021/10/11 10:05:15;;;;;;;25.13;9.73;;;10.30;99.90;;;;;;5079764;28;20040;-85
2021/10/11 10:07:49;;;;;;;21.95;12.23;;;10.30;99.90;;;;;;5078412;28;20131;-85
2021/10/11 10:10:21;;;;;;;24.88;12.23;;;10.30;99.90;;;;;;5076489;28;20053;-84
2021/10/11 10:12:50;;;;;;;27.48;10.02;;;10.20;99.90;;;;;;5078626;28;20155;-85
2021/10/11 10:15:31;;;;;;;21.30;9.57;;;10.20;99.90;;;;;;5078297;28;20049;-86
2021/10/11 10:18:04;;;;;;;18.73;9.90;;;10.20;99.90;;;;;;5078251;28;20072;-85
2021/10/11 10:20:32;;;;;;;17.55;9.68;;;10.30;99.90;;;;;;5078808;28;20072;-85
2021/10/11 10:22:59;;;;;;;19.48;9.90;;;10.40;99.90;;;;;;5078402;28;20127;-85
2021/10/11 10:25:27;;;;;;;26.33;11.00;;;10.30;99.90;;;;;;5077719;28;20454;-85
2021/10/11 10:28:11;;;;;;;19.77;9.73;;;10.20;99.90;;;;;;5077797;28;20055;-86
2021/10/11 10:30:38;;;;;;;21.63;10.13;;;10.30;99.90;;;;;;5078171;28;20144;-85
2021/10/11 10:33:07;;;;;;;24.48;10.20;;;10.30;99.90;;;;;;5077956;28;20518;-85
2021/10/11 10:35:44;;;;;;;26.42;11.15;;;10.50;99.90;;;;;;5078248;28;20048;-85
2021/10/11 10:38:21;;;;;;;14.95;9.63;;;10.50;99.90;;;;;;5082243;28;20131;-86
2021/10/11 10:40:48;;;;;;;25.58;10.45;;;10.50;99.90;;;;;;5081953;28;20051;-85
2021/10/11 10:43:17;;;;;;;21.85;11.27;;;10.50;99.90;;;;;;5081916;28;20051;-86
2021/10/11 10:45:47;;;;;;;27.42;10.75;;;10.40;99.90;;;;;;5080797;28;20044;-84
2021/10/11 10:48:26;;;;;;;22.63;12.02;;;10.00;99.90;;;;;;5081356;28;20044;-86
2021/10/11 10:51:05;;;;;;;35.45;15.27;;;9.90;99.90;;;;;;5082979;28;20132;-85
2021/10/11 10:53:31;;;;;;;34.65;14.68;;;9.90;99.90;;;;;;5081234;28;20096;-85
2021/10/11 10:55:58;;;;;;;36.50;18.10;;;9.90;99.90;;;;;;5076154;28;20135;-84
2021/10/11 10:58:25;;;;;;;43.22;25.10;;;10.00;99.90;;;;;;5077255;28;20116;-85
2021/10/11 11:00:54;;;;;;;50.72;25.55;;;9.90;99.90;;;;;;5078733;28;20060;-85
2021/10/11 11:03:21;;;;;;;40.38;15.23;;;9.90;99.90;;;;;;5077062;28;20052;-84
2021/10/11 11:05:51;;;;;;;45.85;17.35;;;9.90;99.90;;;;;;5077293;28;20485;-85
2021/10/11 11:08:38;;;;;;;39.15;15.98;;;10.00;99.90;;;;;;5076807;28;20521;-84
2021/10/11 11:11:05;;;;;;;53.78;23.42;;;10.00;99.90;;;;;;5077071;28;20131;-85
2021/10/11 11:13:32;;;;;;;42.90;14.63;;;10.00;99.90;;;;;;5079049;28;20048;-86
2021/10/11 11:15:59;;;;;;;41.70;15.20;;;9.80;99.90;;;;;;5080098;28;20151;-86
2021/10/11 11:18:27;;;;;;;48.65;24.38;;;9.80;99.90;;;;;;5079934;28;20052;-86
2021/10/11 11:20:55;;;;;;;73.22;34.47;;;9.70;99.90;;;;;;5080337;28;20123;-86
2021/10/11 11:23:31;;;;;;;60.67;25.90;;;9.60;99.90;;;;;;5080119;28;20127;-86
2021/10/11 11:26:03;;;;;;;60.83;29.15;;;9.50;99.90;;;;;;5080015;28;20548;-85
2021/10/11 11:28:29;;;;;;;33.65;16.70;;;9.50;99.90;;;;;;5081194;28;20088;-87
2021/10/11 11:31:10;;;;;;;28.70;14.35;;;9.50;99.90;;;;;;5078084;28;20092;-86
2021/10/11 11:33:48;;;;;;;29.63;15.35;;;9.60;99.90;;;;;;5077802;28;20052;-86
2021/10/11 11:36:16;;;;;;;27.52;15.65;;;9.60;99.90;;;;;;5077400;28;20080;-86
2021/10/11 11:38:43;;;;;;;30.20;18.55;;;9.80;99.90;;;;;;5077684;28;20135;-86
2021/10/11 11:41:10;;;;;;;28.08;19.67;;;9.90;99.90;;;;;;5080793;28;20075;-86
2021/10/11 11:43:42;;;;;;;24.33;15.13;;;10.10;99.90;;;;;;5077953;28;20045;-86
2021/10/11 11:46:12;;;;;;;28.23;18.08;;;10.20;99.90;;;;;;5079026;28;20055;-86
2021/10/11 11:48:41;;;;;;;24.38;18.35;;;10.20;99.90;;;;;;5079258;28;20379;-86
2021/10/11 11:51:15;;;;;;;29.13;19.08;;;10.20;99.90;;;;;;5078171;28;20134;-87
2021/10/11 11:53:42;;;;;;;;;;;10.20;99.90;;;;;;5078930;28;20474;-86
2021/10/11 11:56:11;;;;;;;39.63;20.80;;;10.20;99.90;;;;;;5078295;28;19971;-86
2021/10/11 11:58:49;;;;;;;30.05;17.65;;;10.10;99.90;;;;;;5079624;28;20048;-85
2021/10/11 12:01:23;;;;;;;27.95;16.73;;;10.10;99.90;;;;;;5079618;28;20139;-86
2021/10/11 12:03:58;;;;;;;28.38;17.73;;;10.20;99.90;;;;;;5080850;28;20075;-85
2021/10/11 12:06:27;;;;;;;23.92;17.42;;;10.30;99.90;;;;;;5078926;28;20126;-85
2021/10/11 12:08:55;;;;;;;30.88;19.95;;;10.20;99.90;;;;;;5078530;28;20569;-85
2021/10/11 12:11:22;;;;;;;29.88;18.30;;;10.20;99.90;;;;;;5076753;28;20094;-85
2021/10/11 12:13:49;;;;;;;27.42;18.58;;;10.10;99.90;;;;;;5074222;28;20139;-84
2021/10/11 12:16:21;;;;;;;28.23;18.42;;;10.20;99.90;;;;;;5075878;28;20151;-85
2021/10/11 12:18:50;;;;;;;31.40;19.75;;;10.30;99.90;;;;;;5075320;28;20409;-85
2021/10/11 12:21:27;;;;;;;32.60;19.67;;;10.10;99.90;;;;;;5074147;28;20132;-86
2021/10/11 12:23:56;;;;;;;28.95;18.10;;;10.20;99.90;;;;;;5075978;28;20075;-86
2021/10/11 12:26:25;;;;;;;32.22;18.55;;;10.40;99.90;;;;;;5074631;28;20059;-84
2021/10/11 12:29:00;;;;;;;29.55;18.25;;;10.50;99.90;;;;;;5076237;28;20127;-84
2021/10/11 12:31:32;;;;;;;23.08;15.85;;;10.80;99.90;;;;;;5078058;28;20131;-85
2021/10/11 12:34:06;;;;;;;24.90;15.65;;;11.10;99.90;;;;;;5078176;28;20482;-85
2021/10/11 12:36:54;;;;;;;28.48;13.40;;;11.40;99.90;;;;;;5077720;28;20048;-86
2021/10/11 12:39:32;;;;;;;16.13;9.98;;;11.40;99.90;;;;;;5078286;28;20056;-85
2021/10/11 12:41:59;;;;;;;16.30;10.18;;;11.50;99.90;;;;;;5078215;28;20132;-85
2021/10/11 12:45:00;;;;;;;17.52;12.82;;;11.60;99.90;;;;;;5078094;28;20052;-85